Time;durP1;ratioP1;P1;durP2;ratioP2;P2;SDS_P1;SDS_P2;PMS_P1;PMS_P2;Temp;Humidity;BMP_temperature;BMP_pressure;BME280_temperature;BME280_humidity;BME280_pressure;Samples;Min_cycle;Max_cycle;Signal;HPM_P1;HPM_P2
2022/02/23 00:01:06;;;;;;;2.78;1.33;;;7.10;99.90;;;;;;5078985;28;20232;-87
2022/02/23 00:03:33;;;;;;;1.73;1.15;;;7.10;99.90;;;;;;5080950;28;20623;-87
2022/02/23 00:06:00;;;;;;;4.10;1.00;;;7.20;99.90;;;;;;5092724;28;20262;-87
2022/02/23 00:08:31;;;;;;;1.23;1.13;;;7.20;99.90;;;;;;5101838;28;20232;-87
2022/02/23 00:11:03;;;;;;;0.90;0.90;;;7.20;99.90;;;;;;5103829;28;20265;-87
2022/02/23 00:13:34;;;;;;;2.55;0.80;;;7.20;99.90;;;;;;5102750;28;20687;-87
2022/02/23 00:16:00;;;;;;;1.55;1.00;;;7.20;99.90;;;;;;5080852;28;20212;-87
2022/02/23 00:18:27;;;;;;;0.70;0.70;;;7.20;99.90;;;;;;5083790;28;20237;-84
2022/02/23 00:20:55;;;;;;;3.75;0.90;;;7.20;99.90;;;;;;5103257;28;20396;-85
2022/02/23 00:23:22;;;;;;;1.15;1.00;;;7.20;99.90;;;;;;5105437;28;20221;-85
2022/02/23 00:25:52;;;;;;;1.15;1.05;;;7.10;99.90;;;;;;5084313;28;20225;-85
2022/02/23 00:28:20;;;;;;;1.00;1.00;;;7.10;99.90;;;;;;5081719;28;20240;-86
2022/02/23 00:30:53;;;;;;;3.05;1.08;;;7.10;99.90;;;;;;5099644;28;20197;-86
2022/02/23 00:33:21;;;;;;;1.75;0.85;;;7.00;99.90;;;;;;5101946;28;20283;-86
2022/02/23 00:36:00;;;;;;;1.25;1.15;;;7.00;99.90;;;;;;5082341;28;20228;-86
2022/02/23 00:38:26;;;;;;;0.85;0.68;;;7.00;99.90;;;;;;5101605;22;20549;-84
2022/02/23 00:40:53;;;;;;;2.38;0.93;;;6.90;99.90;;;;;;5077971;28;20205;-84
2022/02/23 00:43:21;;;;;;;0.88;0.88;;;6.90;99.90;;;;;;5077891;28;20197;-84
2022/02/23 00:45:48;;;;;;;1.85;1.30;;;7.00;99.90;;;;;;5058001;28;20233;-84
2022/02/23 00:48:14;;;;;;;1.25;0.88;;;6.90;99.90;;;;;;5057517;28;20230;-83
2022/02/23 00:50:41;;;;;;;1.20;1.10;;;6.90;99.90;;;;;;5057243;28;20212;-84
2022/02/23 00:53:08;;;;;;;0.90;0.90;;;6.90;99.90;;;;;;5057897;28;20662;-84
2022/02/23 00:55:35;;;;;;;1.02;1.02;;;6.80;99.90;;;;;;5057859;28;20209;-84
2022/02/23 00:58:01;;;;;;;2.53;1.15;;;6.90;99.90;;;;;;5060664;28;20209;-83
2022/02/23 01:00:29;;;;;;;1.98;0.90;;;6.90;99.90;;;;;;5061625;28;20202;-85
2022/02/23 01:02:56;;;;;;;1.27;0.80;;;6.90;99.90;;;;;;5060748;28;20198;-84
2022/02/23 01:05:23;;;;;;;1.90;1.27;;;6.80;99.90;;;;;;5061417;28;20236;-83
2022/02/23 01:07:50;;;;;;;1.23;1.13;;;6.90;99.90;;;;;;5061279;28;20201;-84
2022/02/23 01:10:17;;;;;;;1.55;0.90;;;7.00;99.90;;;;;;5060567;28;20230;-84
2022/02/23 01:12:44;;;;;;;0.73;0.65;;;6.90;99.90;;;;;;5061470;28;20469;-83
2022/02/23 01:15:11;;;;;;;1.10;1.10;;;7.00;99.90;;;;;;5061757;28;20633;-84
2022/02/23 01:17:41;;;;;;;1.65;1.20;;;7.00;99.90;;;;;;5060751;28;20202;-83
2022/02/23 01:20:08;;;;;;;2.50;0.75;;;7.00;99.90;;;;;;5060464;28;20730;-84
2022/02/23 01:22:35;;;;;;;1.85;0.93;;;6.90;99.90;;;;;;5060176;28;20229;-84
2022/02/23 01:25:03;;;;;;;0.98;0.88;;;7.00;99.90;;;;;;5061089;28;20222;-85
2022/02/23 01:27:30;;;;;;;0.85;0.85;;;6.90;99.90;;;;;;5061272;28;20206;-85
2022/02/23 01:29:58;;;;;;;0.98;0.93;;;6.80;99.90;;;;;;5061277;28;20236;-85
2022/02/23 01:32:24;;;;;;;0.88;0.68;;;6.80;99.90;;;;;;5060398;28;20205;-86
2022/02/23 01:34:53;;;;;;;1.65;1.25;;;6.80;99.90;;;;;;5060754;28;20209;-85
2022/02/23 01:37:20;;;;;;;0.82;0.82;;;6.80;99.90;;;;;;5060895;28;20679;-85
2022/02/23 01:39:46;;;;;;;1.20;1.10;;;6.70;99.90;;;;;;5060537;28;20229;-86
2022/02/23 01:42:13;;;;;;;1.50;1.33;;;6.70;99.90;;;;;;5060727;28;20206;-86
2022/02/23 01:44:40;;;;;;;2.00;1.10;;;6.70;99.90;;;;;;5060167;28;20202;-85
2022/02/23 01:47:07;;;;;;;2.13;1.20;;;6.80;99.90;;;;;;5060853;28;20205;-86
2022/02/23 01:49:34;;;;;;;4.10;1.42;;;6.80;99.90;;;;;;5060977;28;20225;-86
2022/02/23 01:52:03;;;;;;;1.00;0.90;;;6.80;99.90;;;;;;5060524;28;20693;-86
2022/02/23 01:54:29;;;;;;;1.58;0.95;;;6.80;99.90;;;;;;5060729;28;20206;-85
2022/02/23 01:56:56;;;;;;;0.95;0.75;;;6.70;99.90;;;;;;5062132;28;20202;-85
2022/02/23 01:59:23;;;;;;;1.38;1.25;;;6.80;99.90;;;;;;5061247;28;20222;-85
2022/02/23 02:01:52;;;;;;;3.83;0.95;;;6.80;99.90;;;;;;5061075;28;20568;-85
2022/02/23 02:04:21;;;;;;;3.60;1.60;;;6.80;99.90;;;;;;5059869;28;20550;-86
2022/02/23 02:06:48;;;;;;;0.80;0.80;;;6.70;99.90;;;;;;5049814;28;20753;-85
2022/02/23 02:09:16;;;;;;;2.10;1.50;;;6.50;99.90;;;;;;5039131;28;20223;-83
2022/02/23 02:11:43;;;;;;;1.75;0.80;;;5.80;99.90;;;;;;5040096;28;20202;-82
2022/02/23 02:14:10;;;;;;;1.30;1.20;;;5.40;99.90;;;;;;5042596;28;20678;-83
2022/02/23 02:16:38;;;;;;;1.10;0.70;;;4.80;99.90;;;;;;5060106;28;20201;-82
2022/02/23 02:19:06;;;;;;;1.05;0.70;;;4.70;99.90;;;;;;5059046;28;20748;-81
2022/02/23 02:21:51;;;;;;;2.58;0.93;;;4.50;99.90;;;;;;5058796;28;20205;-82
2022/02/23 02:24:18;;;;;;;3.78;0.98;;;4.50;99.90;;;;;;5059439;28;20626;-83
2022/02/23 02:26:45;;;;;;;1.00;0.90;;;4.40;99.90;;;;;;5059549;28;20587;-83
2022/02/23 02:29:11;;;;;;;2.08;0.80;;;4.40;99.90;;;;;;5059220;28;20275;-82
2022/02/23 02:31:38;;;;;;;4.50;1.13;;;4.30;99.90;;;;;;5059576;28;20212;-83
2022/02/23 02:34:05;;;;;;;10.90;3.03;;;4.30;99.90;;;;;;5060184;28;20205;-82
2022/02/23 02:36:32;;;;;;;1.77;1.27;;;4.30;99.90;;;;;;5059444;28;20664;-83
2022/02/23 02:39:00;;;;;;;2.80;1.40;;;4.20;99.90;;;;;;5059121;28;20254;-81
2022/02/23 02:41:27;;;;;;;5.20;1.35;;;4.20;99.90;;;;;;5058770;28;20213;-82
2022/02/23 02:43:53;;;;;;;5.10;2.13;;;4.20;99.90;;;;;;5058922;28;20220;-82
2022/02/23 02:46:20;;;;;;;1.83;1.50;;;4.30;99.90;;;;;;5058490;28;20231;-83
2022/02/23 02:48:47;;;;;;;4.85;1.15;;;4.30;99.90;;;;;;5057944;28;20233;-83
2022/02/23 02:51:14;;;;;;;2.13;1.77;;;4.30;99.90;;;;;;5058277;28;20585;-83
2022/02/23 02:53:40;;;;;;;5.28;1.27;;;4.30;99.90;;;;;;5058021;28;20206;-83
2022/02/23 02:56:08;;;;;;;5.10;1.40;;;4.40;99.90;;;;;;5059076;28;20248;-82
2022/02/23 02:58:35;;;;;;;2.90;1.50;;;4.30;99.90;;;;;;5058738;28;20229;-83
2022/02/23 03:01:02;;;;;;;1.55;1.45;;;4.40;99.90;;;;;;5057960;28;20685;-83
2022/02/23 03:03:29;;;;;;;2.55;1.58;;;4.40;99.90;;;;;;5058879;28;20559;-83
2022/02/23 03:05:55;;;;;;;7.03;1.30;;;4.50;99.90;;;;;;5059404;28;20228;-83
2022/02/23 03:08:22;;;;;;;10.93;2.22;;;4.50;99.90;;;;;;5058711;28;20230;-83
2022/02/23 03:10:49;;;;;;;2.80;1.60;;;4.50;99.90;;;;;;5058748;28;20206;-83
2022/02/23 03:13:18;;;;;;;1.48;1.33;;;4.50;99.90;;;;;;5059681;28;20209;-83
2022/02/23 03:15:46;;;;;;;2.80;1.40;;;4.50;99.90;;;;;;5058614;28;20205;-83
2022/02/23 03:18:13;;;;;;;3.20;2.25;;;4.60;99.90;;;;;;5059274;28;20237;-83
2022/02/23 03:20:39;;;;;;;2.45;1.65;;;4.60;99.90;;;;;;5058742;28;20295;-83
2022/02/23 03:23:06;;;;;;;4.20;1.92;;;4.60;99.90;;;;;;5059121;28;20280;-83
2022/02/23 03:25:33;;;;;;;1.30;1.20;;;4.60;99.90;;;;;;5059452;28;20228;-84
2022/02/23 03:28:00;;;;;;;1.45;1.33;;;4.60;99.90;;;;;;5059173;28;20212;-83
2022/02/23 03:30:28;;;;;;;5.55;1.58;;;4.60;99.90;;;;;;5058913;28;20238;-83
2022/02/23 03:32:55;;;;;;;4.20;1.20;;;4.60;99.90;;;;;;5058725;28;20577;-83
2022/02/23 03:35:27;;;;;;;9.23;1.52;;;4.60;99.90;;;;;;5059096;28;20212;-84
2022/02/23 03:37:55;;;;;;;2.85;2.00;;;4.60;99.90;;;;;;5059042;28;20721;-84
2022/02/23 03:40:22;;;;;;;2.20;2.08;;;4.50;99.90;;;;;;5058786;28;20204;-83
2022/02/23 03:42:49;;;;;;;4.47;1.95;;;4.50;99.90;;;;;;5058730;28;20201;-83
2022/02/23 03:45:16;;;;;;;3.13;1.55;;;4.50;99.90;;;;;;5058829;28;20262;-83
2022/02/23 03:47:44;;;;;;;3.33;1.50;;;4.40;99.90;;;;;;5059071;28;20205;-83
2022/02/23 03:50:11;;;;;;;2.13;1.50;;;4.40;99.90;;;;;;5058472;28;20729;-84
2022/02/23 03:52:38;;;;;;;5.43;2.15;;;4.40;99.90;;;;;;5058484;28;20208;-83
2022/02/23 03:55:06;;;;;;;2.30;1.67;;;4.30;99.90;;;;;;5058326;28;20219;-84
2022/02/23 03:57:32;;;;;;;1.50;1.40;;;4.30;99.90;;;;;;5058391;28;20194;-83
2022/02/23 03:59:59;;;;;;;5.55;2.15;;;4.30;99.90;;;;;;5058297;28;20225;-84
2022/02/23 04:02:26;;;;;;;4.05;1.90;;;4.30;99.90;;;;;;5058452;28;20208;-84
2022/02/23 04:04:54;;;;;;;2.25;1.90;;;4.20;99.90;;;;;;5058270;28;20215;-84
2022/02/23 04:07:21;;;;;;;1.83;1.73;;;4.10;99.90;;;;;;5058326;28;20224;-83
2022/02/23 04:09:48;;;;;;;4.50;1.88;;;4.10;99.90;;;;;;5059124;28;20231;-83
2022/02/23 04:12:15;;;;;;;6.03;1.98;;;4.10;99.90;;;;;;5059442;28;20232;-83
2022/02/23 04:14:42;;;;;;;2.83;2.63;;;4.30;99.90;;;;;;5059901;28;20202;-83
2022/02/23 04:17:09;;;;;;;5.15;2.53;;;4.40;99.90;;;;;;5059174;28;20263;-83
2022/02/23 04:19:36;;;;;;;3.70;2.55;;;4.50;99.90;;;;;;5058147;28;20315;-83
2022/02/23 04:22:05;;;;;;;7.60;2.88;;;4.60;99.90;;;;;;5058018;28;20288;-84
2022/02/23 04:24:32;;;;;;;2.35;1.60;;;4.60;99.90;;;;;;5058398;28;20540;-84
2022/02/23 04:27:00;;;;;;;4.85;2.17;;;4.60;99.90;;;;;;5058039;28;20222;-84
2022/02/23 04:29:27;;;;;;;11.55;3.97;;;4.70;99.90;;;;;;5058062;28;20232;-83
2022/02/23 04:31:54;;;;;;;3.80;1.95;;;4.80;99.90;;;;;;5059393;28;20209;-84
2022/02/23 04:34:21;;;;;;;4.93;2.63;;;4.80;99.90;;;;;;5062380;28;20205;-84
2022/02/23 04:36:48;;;;;;;5.22;2.35;;;4.90;99.90;;;;;;5061819;28;20213;-83
2022/02/23 04:39:16;;;;;;;5.78;2.80;;;5.00;99.90;;;;;;5061339;28;20658;-84
2022/02/23 04:41:43;;;;;;;3.08;2.47;;;5.10;99.90;;;;;;5061158;28;20206;-84
2022/02/23 04:44:10;;;;;;;8.65;2.40;;;5.20;99.90;;;;;;5061958;28;20215;-84
2022/02/23 04:46:38;;;;;;;4.07;2.10;;;5.20;99.90;;;;;;5061979;28;20231;-84
2022/02/23 04:49:05;;;;;;;3.22;2.10;;;5.40;99.90;;;;;;5061815;28;20587;-84
2022/02/23 04:51:32;;;;;;;7.13;2.33;;;5.40;99.90;;;;;;5067116;28;20236;-82
2022/02/23 04:53:59;;;;;;;4.45;2.88;;;5.40;99.90;;;;;;5075998;28;20198;-83
2022/02/23 04:56:28;;;;;;;5.93;3.03;;;5.30;99.90;;;;;;5076943;28;20197;-82
2022/02/23 04:58:55;;;;;;;4.55;2.85;;;5.40;99.90;;;;;;5076640;28;20226;-84
2022/02/23 05:01:22;;;;;;;6.65;3.08;;;5.40;99.90;;;;;;5075920;28;20206;-83
2022/02/23 05:03:49;;;;;;;5.20;2.13;;;5.40;99.90;;;;;;5075744;28;20261;-81
2022/02/23 05:06:16;;;;;;;7.35;2.78;;;5.30;99.90;;;;;;5076027;28;20245;-83
2022/02/23 05:08:42;;;;;;;12.15;3.05;;;5.10;99.90;;;;;;5075823;28;20308;-83
2022/02/23 05:11:09;;;;;;;3.97;2.50;;;5.10;99.90;;;;;;5076150;28;20206;-81
2022/02/23 05:13:38;;;;;;;6.32;2.65;;;5.10;99.90;;;;;;5076176;28;20235;-83
2022/02/23 05:16:05;;;;;;;5.70;2.80;;;5.10;99.90;;;;;;5076134;28;20262;-83
2022/02/23 05:18:32;;;;;;;4.38;1.80;;;5.10;99.90;;;;;;5075871;28;20228;-82
2022/02/23 05:21:00;;;;;;;7.82;2.55;;;4.90;99.90;;;;;;5075548;28;20198;-83
2022/02/23 05:23:28;;;;;;;4.72;2.60;;;4.90;99.90;;;;;;5076010;28;20237;-82
2022/02/23 05:25:56;;;;;;;4.45;2.40;;;4.90;99.90;;;;;;5075236;28;20269;-81
2022/02/23 05:28:24;;;;;;;6.32;2.67;;;4.70;99.90;;;;;;5075670;28;20257;-82
2022/02/23 05:30:52;;;;;;;4.22;2.70;;;4.60;99.90;;;;;;5075519;28;20190;-82
2022/02/23 05:33:19;;;;;;;4.63;3.00;;;4.50;99.90;;;;;;5075755;28;20324;-82
2022/02/23 05:35:46;;;;;;;5.20;2.75;;;4.50;99.90;;;;;;5074534;28;20554;-81
2022/02/23 05:38:13;;;;;;;3.67;1.95;;;4.50;99.90;;;;;;5074413;28;20257;-82
2022/02/23 05:40:40;;;;;;;5.72;2.40;;;4.40;99.90;;;;;;5074054;28;20205;-83
2022/02/23 05:43:06;;;;;;;6.35;2.45;;;4.40;99.90;;;;;;5071563;28;20241;-83
2022/02/23 05:45:33;;;;;;;5.18;2.70;;;4.40;99.90;;;;;;5066311;28;20240;-84
2022/02/23 05:48:01;;;;;;;11.98;2.50;;;4.20;99.90;;;;;;5061870;28;20236;-84
2022/02/23 05:50:28;;;;;;;3.53;2.67;;;4.20;99.90;;;;;;5060667;28;20583;-83
2022/02/23 05:52:55;;;;;;;2.40;2.20;;;4.10;99.90;;;;;;5061288;28;20237;-84
2022/02/23 05:55:21;;;;;;;2.40;2.00;;;4.10;99.90;;;;;;5060958;28;20260;-84
2022/02/23 05:57:48;;;;;;;6.55;2.85;;;4.00;99.90;;;;;;5060840;28;20201;-84
2022/02/23 06:00:16;;;;;;;4.10;3.25;;;4.00;99.90;;;;;;5060918;28;20228;-83
2022/02/23 06:02:43;;;;;;;2.92;2.13;;;4.00;99.90;;;;;;5061088;28;20224;-83
2022/02/23 06:05:11;;;;;;;7.72;2.90;;;4.00;99.90;;;;;;5060974;28;20562;-83
2022/02/23 06:07:38;;;;;;;4.75;3.88;;;3.90;99.90;;;;;;5060859;28;20233;-83
2022/02/23 06:10:06;;;;;;;5.13;3.33;;;3.90;99.90;;;;;;5060705;28;20229;-83
2022/02/23 06:12:33;;;;;;;2.72;2.22;;;3.90;99.90;;;;;;5060357;28;20208;-83
2022/02/23 06:14:59;;;;;;;5.32;2.75;;;3.80;99.90;;;;;;5061009;28;20587;-82
2022/02/23 06:17:28;;;;;;;3.65;2.95;;;3.80;99.90;;;;;;5060895;28;20684;-83
2022/02/23 06:19:55;;;;;;;6.82;3.25;;;3.80;99.90;;;;;;5060536;28;20243;-83
2022/02/23 06:22:23;;;;;;;5.57;3.00;;;3.90;99.90;;;;;;5059581;28;20216;-83
2022/02/23 06:24:50;;;;;;;8.40;3.20;;;3.90;99.90;;;;;;5060994;28;20208;-83
2022/02/23 06:27:17;;;;;;;3.15;2.72;;;3.90;99.90;;;;;;5060528;28;20248;-84
2022/02/23 06:29:44;;;;;;;5.13;3.15;;;3.90;99.90;;;;;;5059859;28;20697;-84
2022/02/23 06:32:11;;;;;;;6.22;3.45;;;3.80;99.90;;;;;;5060218;28;20204;-84
2022/02/23 06:34:38;;;;;;;5.72;2.80;;;3.80;99.90;;;;;;5060650;28;20213;-84
2022/02/23 06:37:06;;;;;;;6.72;3.17;;;3.70;99.90;;;;;;5061009;28;20277;-82
2022/02/23 06:39:38;;;;;;;8.88;3.20;;;3.80;99.90;;;;;;5061230;28;20232;-84
2022/02/23 06:42:06;;;;;;;9.07;5.15;;;3.70;99.90;;;;;;5059787;28;20208;-83
2022/02/23 06:44:33;;;;;;;2.90;2.63;;;3.60;99.90;;;;;;5060582;28;20212;-84
2022/02/23 06:47:01;;;;;;;3.00;2.72;;;3.60;99.90;;;;;;5060925;28;20239;-84
2022/02/23 06:49:30;;;;;;;4.30;3.17;;;3.70;99.90;;;;;;5040402;28;20247;-83
2022/02/23 06:51:58;;;;;;;11.18;9.93;;;3.80;99.90;;;;;;5039414;28;20276;-83
2022/02/23 06:54:26;;;;;;;15.32;9.07;;;3.80;99.90;;;;;;5060679;28;20248;-83
2022/02/23 06:56:54;;;;;;;9.32;6.68;;;3.90;99.90;;;;;;5061320;28;20212;-84
2022/02/23 06:59:21;;;;;;;7.57;6.00;;;3.90;99.90;;;;;;5061398;28;20260;-83
2022/02/23 07:01:48;;;;;;;7.88;5.93;;;4.00;99.90;;;;;;5060889;28;20201;-85
2022/02/23 07:04:15;;;;;;;9.00;7.15;;;4.00;99.90;;;;;;5062755;28;20212;-85
2022/02/23 07:06:42;;;;;;;9.02;7.78;;;4.10;99.90;;;;;;5060780;28;20218;-82
2022/02/23 07:09:09;;;;;;;9.98;6.97;;;4.10;99.90;;;;;;5060664;28;20243;-83
2022/02/23 07:11:37;;;;;;;8.27;6.78;;;4.20;99.90;;;;;;5049444;28;20206;-82
2022/02/23 07:14:07;;;;;;;5.45;4.95;;;4.20;99.90;;;;;;5051182;28;20204;-83
2022/02/23 07:16:33;;;;;;;7.15;5.15;;;4.30;99.90;;;;;;5049305;28;20197;-83
2022/02/23 07:19:00;;;;;;;9.27;4.70;;;4.20;99.90;;;;;;5047720;28;20587;-83
2022/02/23 07:21:27;;;;;;;4.53;4.13;;;4.30;99.90;;;;;;5049119;28;20197;-84
2022/02/23 07:23:54;;;;;;;6.70;6.00;;;4.30;99.90;;;;;;5047431;28;20208;-82
2022/02/23 07:26:21;;;;;;;7.93;3.90;;;4.30;99.90;;;;;;5048073;28;20222;-82
2022/02/23 07:28:47;;;;;;;5.95;3.88;;;4.40;99.90;;;;;;5039821;28;20252;-78
2022/02/23 07:31:17;;;;;;;4.78;4.35;;;4.40;99.90;;;;;;5053105;28;20209;-78
2022/02/23 07:33:44;;;;;;;6.70;4.43;;;4.40;99.90;;;;;;5052533;28;20659;-78
2022/02/23 07:36:11;;;;;;;11.88;7.15;;;4.40;99.90;;;;;;5051688;28;20219;-78
2022/02/23 07:38:40;;;;;;;6.65;4.40;;;4.50;99.90;;;;;;5053686;28;20225;-80
2022/02/23 07:41:08;;;;;;;14.07;4.97;;;4.50;99.90;;;;;;5046565;28;20197;-79
2022/02/23 07:43:36;;;;;;;6.53;3.38;;;4.50;99.90;;;;;;5053761;28;20216;-80
2022/02/23 07:46:05;;;;;;;4.22;3.83;;;4.60;99.90;;;;;;5053438;28;20255;-83
2022/02/23 07:48:33;;;;;;;8.30;4.03;;;4.60;99.90;;;;;;5055211;28;20316;-83
2022/02/23 07:51:03;;;;;;;8.57;4.57;;;4.70;99.90;;;;;;5055131;28;20231;-83
2022/02/23 07:53:30;;;;;;;4.80;3.17;;;4.80;99.90;;;;;;5054907;28;20213;-82
2022/02/23 07:55:57;;;;;;;5.97;2.92;;;4.90;99.90;;;;;;5054901;28;20681;-82
2022/02/23 07:58:24;;;;;;;8.95;4.20;;;5.00;99.90;;;;;;5055167;28;20228;-83
2022/02/23 08:00:50;;;;;;;6.18;3.85;;;5.10;99.90;;;;;;5055348;28;20216;-82
2022/02/23 08:03:17;;;;;;;6.15;3.20;;;5.20;99.90;;;;;;5055723;28;20204;-83
2022/02/23 08:05:46;;;;;;;5.22;2.58;;;5.30;99.90;;;;;;5054796;28;20670;-83
2022/02/23 08:08:14;;;;;;;6.15;3.20;;;5.40;99.90;;;;;;5057434;28;20237;-83
2022/02/23 08:10:41;;;;;;;9.70;3.60;;;5.40;99.90;;;;;;5058301;28;20213;-83
2022/02/23 08:13:07;;;;;;;7.18;3.25;;;5.60;99.90;;;;;;5058990;28;20209;-82
2022/02/23 08:21:05;;;;;;;5.95;2.78;;;5.90;99.90;;;;;;5059016;28;20209;-83
2022/02/23 08:23:32;;;;;;;4.50;3.28;;;6.00;99.90;;;;;;5058991;28;20217;-82
2022/02/23 08:25:59;;;;;;;3.60;2.60;;;6.00;99.90;;;;;;5059352;28;20213;-83
2022/02/23 08:28:26;;;;;;;5.20;2.90;;;6.20;99.90;;;;;;5059328;28;20233;-82
2022/02/23 08:30:53;;;;;;;4.72;2.72;;;6.20;99.90;;;;;;5058926;28;20202;-82
2022/02/23 08:33:19;;;;;;;4.07;3.00;;;6.20;99.90;;;;;;5059388;28;20205;-83
2022/02/23 08:35:46;;;;;;;5.80;3.75;;;6.30;99.90;;;;;;5068276;28;20209;-81
2022/02/23 08:38:15;;;;;;;3.22;2.75;;;6.40;99.90;;;;;;5070572;28;20240;-82
2022/02/23 08:40:44;;;;;;;3.95;3.25;;;6.50;99.90;;;;;;5071550;28;20189;-81
2022/02/23 08:43:11;;;;;;;5.13;2.30;;;6.60;99.90;;;;;;5070758;28;20266;-82
2022/02/23 08:45:38;;;;;;;2.55;2.35;;;6.70;99.90;;;;;;5070548;28;20214;-81
2022/02/23 08:48:06;;;;;;;4.00;2.28;;;6.80;99.90;;;;;;5070371;28;20229;-82
2022/02/23 08:50:34;;;;;;;6.82;2.78;;;6.90;99.90;;;;;;5062418;28;20271;-82
2022/02/23 08:53:00;;;;;;;5.10;3.03;;;7.00;99.90;;;;;;5060927;28;20248;-83
2022/02/23 08:55:29;;;;;;;6.93;3.15;;;7.10;99.90;;;;;;5060597;28;20285;-83
2022/02/23 08:57:58;;;;;;;5.82;3.78;;;7.20;99.90;;;;;;5060107;28;20206;-83
2022/02/23 09:00:25;;;;;;;3.85;2.53;;;7.20;99.90;;;;;;5062492;28;20216;-83
2022/02/23 09:02:52;;;;;;;3.72;2.65;;;7.40;99.90;;;;;;5061020;28;20202;-83
2022/02/23 09:05:19;;;;;;;3.90;1.95;;;7.60;99.90;;;;;;5061126;28;20221;-84
2022/02/23 09:07:46;;;;;;;9.02;4.03;;;7.80;99.90;;;;;;5061099;28;20247;-83
2022/02/23 09:10:12;;;;;;;5.57;2.65;;;7.70;99.90;;;;;;5061857;28;20225;-83
2022/02/23 09:12:43;;;;;;;6.93;2.63;;;7.70;99.90;;;;;;5063519;28;20217;-84
2022/02/23 09:15:12;;;;;;;2.00;1.75;;;7.60;99.90;;;;;;5063462;28;20259;-83
2022/02/23 09:17:39;;;;;;;6.57;3.05;;;7.70;99.90;;;;;;5062017;28;20206;-83
2022/02/23 09:20:07;;;;;;;3.17;2.17;;;7.80;99.90;;;;;;5061526;28;20225;-83
2022/02/23 09:22:34;;;;;;;19.55;12.23;;;7.80;99.90;;;;;;5061011;28;20210;-84
2022/02/23 09:25:01;;;;;;;10.52;4.43;;;7.80;99.90;;;;;;5059865;28;20205;-84
2022/02/23 09:27:27;;;;;;;4.28;3.13;;;7.70;99.90;;;;;;5061008;28;20687;-84
2022/02/23 09:29:55;;;;;;;5.38;3.30;;;7.80;99.90;;;;;;5061267;28;20225;-84
2022/02/23 09:32:22;;;;;;;2.88;1.58;;;7.90;99.90;;;;;;5062198;28;20212;-83
2022/02/23 09:34:49;;;;;;;1.65;1.55;;;8.00;99.90;;;;;;5062137;28;20217;-84
2022/02/23 09:37:17;;;;;;;3.78;1.90;;;7.90;99.90;;;;;;5061564;28;20206;-84
2022/02/23 09:39:44;;;;;;;1.92;1.50;;;8.00;99.90;;;;;;5060465;28;20257;-84
2022/02/23 09:42:11;;;;;;;3.42;2.00;;;8.10;99.90;;;;;;5061500;28;20209;-84
2022/02/23 09:44:40;;;;;;;1.35;1.25;;;8.30;99.90;;;;;;5061350;28;20206;-84
2022/02/23 09:47:09;;;;;;;5.55;1.95;;;8.30;99.90;;;;;;5060432;28;20225;-84
2022/02/23 09:49:36;;;;;;;2.58;1.40;;;8.50;99.90;;;;;;5060477;28;20222;-84
2022/02/23 09:52:04;;;;;;;2.15;1.55;;;8.50;99.90;;;;;;5061324;28;20206;-84
2022/02/23 09:54:31;;;;;;;1.63;1.30;;;8.60;99.90;;;;;;5061087;28;20201;-83
2022/02/23 09:56:58;;;;;;;3.78;1.50;;;8.70;99.90;;;;;;5060867;28;20213;-84
2022/02/23 09:59:26;;;;;;;3.05;1.50;;;8.80;99.90;;;;;;5060604;28;20218;-84
2022/02/23 10:01:54;;;;;;;2.75;1.40;;;9.00;99.90;;;;;;5061522;28;20277;-84
2022/02/23 10:04:24;;;;;;;3.50;1.85;;;9.10;99.90;;;;;;5061977;28;20622;-84
2022/02/23 10:06:52;;;;;;;3.22;1.67;;;9.20;99.90;;;;;;5063909;28;20683;-83
2022/02/23 10:09:19;;;;;;;3.23;1.93;;;9.30;99.90;;;;;;5068433;28;20229;-83
2022/02/23 10:11:48;;;;;;;5.88;1.85;;;9.20;99.90;;;;;;5066293;28;20477;-84
2022/02/23 10:14:15;;;;;;;5.45;2.08;;;9.30;99.90;;;;;;5063178;28;20209;-85
2022/02/23 10:16:44;;;;;;;1.77;1.67;;;9.20;99.90;;;;;;5063517;28;20209;-84
2022/02/23 10:19:14;;;;;;;3.00;1.30;;;9.20;99.90;;;;;;5068179;28;20226;-84
2022/02/23 10:21:55;;;;;;;6.47;1.90;;;9.40;99.90;;;;;;5066526;28;20634;-84
2022/02/23 10:24:28;;;;;;;4.18;1.40;;;9.60;99.90;;;;;;5065072;28;20211;-84
2022/02/23 10:27:00;;;;;;;5.60;1.40;;;9.60;99.90;;;;;;5065816;28;20239;-84
2022/02/23 10:29:29;;;;;;;9.13;2.50;;;9.70;99.90;;;;;;5066305;28;20231;-84
2022/02/23 10:31:57;;;;;;;2.73;1.53;;;9.90;99.90;;;;;;5068830;28;20523;-84
2022/02/23 10:34:27;;;;;;;6.83;1.77;;;10.00;99.90;;;;;;5068214;28;20458;-85
2022/02/23 10:37:06;;;;;;;2.50;2.03;;;10.30;99.90;;;;;;5068822;28;20469;-84
2022/02/23 10:39:38;;;;;;;3.30;1.90;;;10.60;99.90;;;;;;5067045;28;20477;-85
2022/02/23 10:42:06;;;;;;;3.17;2.87;;;10.40;99.90;;;;;;5068479;28;20445;-85
2022/02/23 10:44:33;;;;;;;3.80;3.05;;;10.30;99.90;;;;;;5068704;28;20432;-85
2022/02/23 10:47:01;;;;;;;3.03;1.67;;;10.60;99.90;;;;;;5068538;28;20217;-85
2022/02/23 10:49:28;;;;;;;2.70;1.70;;;10.60;99.90;;;;;;5068417;28;20494;-85
2022/02/23 10:52:06;;;;;;;4.83;2.77;;;10.60;99.90;;;;;;5068520;28;20210;-85
2022/02/23 10:54:34;;;;;;;4.80;2.70;;;10.60;99.90;;;;;;5070137;28;20480;-85
2022/02/23 10:57:22;;;;;;;3.17;1.77;;;10.30;99.90;;;;;;5072544;28;20469;-85
2022/02/23 10:59:49;;;;;;;2.80;1.87;;;10.30;99.90;;;;;;5070453;28;20483;-85
2022/02/23 11:02:16;;;;;;;5.90;2.07;;;10.50;99.90;;;;;;5070472;28;20780;-84
2022/02/23 11:04:44;;;;;;;2.00;1.80;;;10.40;99.90;;;;;;5071358;28;20477;-85
2022/02/23 11:07:12;;;;;;;3.53;1.40;;;10.40;99.90;;;;;;5071913;28;20442;-85
2022/02/23 11:09:39;;;;;;;4.93;1.80;;;10.80;99.90;;;;;;5070004;28;20939;-85
2022/02/23 11:12:07;;;;;;;2.70;1.33;;;11.50;99.90;;;;;;5071405;28;20463;-86
2022/02/23 11:14:35;;;;;;;3.77;1.67;;;12.20;99.90;;;;;;5072546;28;20443;-85
2022/02/23 11:17:02;;;;;;;3.63;1.70;;;12.80;99.90;;;;;;5072293;28;20481;-85
2022/02/23 11:19:34;;;;;;;1.80;1.57;;;13.20;97.10;;;;;;5071159;28;20499;-85
2022/02/23 11:22:03;;;;;;;2.63;1.40;;;13.50;96.80;;;;;;5072122;28;21080;-85
2022/02/23 11:24:31;;;;;;;2.83;1.77;;;14.10;99.50;;;;;;5072033;28;20507;-86
2022/02/23 11:27:05;;;;;;;5.83;2.07;;;14.50;94.70;;;;;;5072367;28;20840;-86
2022/02/23 11:29:38;;;;;;;4.57;2.30;;;14.90;94.80;;;;;;5070781;28;20563;-86
2022/02/23 11:32:08;;;;;;;3.50;1.93;;;15.10;95.80;;;;;;5071415;28;20475;-85
2022/02/23 11:34:39;;;;;;;1.73;1.63;;;15.80;95.50;;;;;;5072437;28;20456;-85
2022/02/23 11:37:16;;;;;;;2.20;1.87;;;16.60;92.70;;;;;;5073062;28;20450;-85
2022/02/23 11:39:45;;;;;;;2.50;2.10;;;16.50;90.50;;;;;;5071924;28;20491;-85
2022/02/23 11:42:21;;;;;;;2.90;2.30;;;16.60;90.10;;;;;;5070653;28;20468;-86
2022/02/23 11:44:50;;;;;;;3.30;2.80;;;16.70;88.10;;;;;;5072293;28;20455;-86
2022/02/23 11:47:19;;;;;;;3.13;2.13;;;17.30;86.70;;;;;;5073099;28;20446;-85
2022/02/23 11:49:52;;;;;;;2.23;1.80;;;17.60;83.90;;;;;;5073090;28;20485;-85
2022/02/23 11:52:21;;;;;;;3.37;2.40;;;17.40;83.10;;;;;;5072678;28;20429;-86
2022/02/23 11:54:58;;;;;;;7.20;3.20;;;17.60;86.50;;;;;;5073346;28;20526;-85
2022/02/23 11:57:42;;;;;;;3.03;1.70;;;17.50;84.30;;;;;;5072055;28;20458;-85
2022/02/23 12:00:10;;;;;;;2.30;1.90;;;17.70;83.60;;;;;;5072350;28;20470;-86
2022/02/23 12:02:38;;;;;;;3.70;2.93;;;17.90;82.80;;;;;;5071918;28;20459;-86
2022/02/23 12:05:07;;;;;;;1.90;1.67;;;18.10;85.10;;;;;;5072360;28;20466;-84
2022/02/23 12:07:51;;;;;;;5.40;2.13;;;18.90;81.20;;;;;;5071246;28;20473;-85
2022/02/23 12:10:27;;;;;;;3.33;1.93;;;18.40;77.70;;;;;;5069467;28;20525;-86
2022/02/23 12:12:54;;;;;;;3.17;1.60;;;18.40;79.20;;;;;;5070200;28;20442;-85
2022/02/23 12:15:39;;;;;;;1.70;1.60;;;19.30;79.70;;;;;;5071216;28;20526;-86
2022/02/23 12:18:13;;;;;;;6.30;2.10;;;19.30;75.00;;;;;;5070196;28;20480;-85
2022/02/23 12:20:54;;;;;;;4.57;1.90;;;19.30;73.10;;;;;;5069763;28;20912;-86
2022/02/23 12:23:44;;;;;;;4.83;2.20;;;19.30;73.10;;;;;;5070090;28;20511;-86
2022/02/23 12:26:24;;;;;;;2.93;1.33;;;19.40;71.90;;;;;;5069005;28;20444;-85
2022/02/23 12:28:53;;;;;;;3.53;2.00;;;19.00;70.50;;;;;;5068787;28;20582;-85
2022/02/23 12:31:24;;;;;;;3.30;2.53;;;19.00;73.40;;;;;;5070444;28;20557;-85
2022/02/23 12:33:54;;;;;;;2.60;1.90;;;19.40;73.00;;;;;;5070807;28;20476;-85
2022/02/23 12:36:32;;;;;;;4.10;1.97;;;20.30;75.10;;;;;;5070629;28;20519;-85
2022/02/23 12:39:01;;;;;;;2.83;1.77;;;20.60;68.00;;;;;;5089225;22;20494;-79
2022/02/23 12:41:32;;;;;;;5.10;2.17;;;20.50;65.30;;;;;;5054422;28;20459;-79
2022/02/23 12:44:01;;;;;;;3.30;2.20;;;19.90;65.60;;;;;;5056064;28;20447;-79
2022/02/23 12:46:30;;;;;;;2.73;2.00;;;20.60;68.20;;;;;;5054911;28;20942;-80
2022/02/23 12:48:58;;;;;;;1.80;1.50;;;21.40;68.70;;;;;;5054863;28;20865;-80
2022/02/23 12:51:29;;;;;;;5.13;2.33;;;22.60;66.30;;;;;;5054976;28;20456;-80
2022/02/23 12:53:58;;;;;;;3.90;1.60;;;23.00;61.90;;;;;;5057328;28;20457;-80
2022/02/23 12:56:27;;;;;;;1.43;1.33;;;22.10;59.60;;;;;;5058889;28;20513;-79
2022/02/23 12:58:56;;;;;;;2.50;1.90;;;21.50;60.90;;;;;;5058384;28;20480;-79
2022/02/23 13:01:25;;;;;;;3.50;1.13;;;21.20;61.80;;;;;;5058540;28;20450;-80
2022/02/23 13:03:54;;;;;;;4.40;1.93;;;21.20;59.70;;;;;;5058463;28;20444;-80
2022/02/23 13:06:25;;;;;;;4.97;2.90;;;20.10;58.90;;;;;;5058104;28;20484;-80